Time;durP1;ratioP1;P1;durP2;ratioP2;P2;SDS_P1;SDS_P2;PMS_P1;PMS_P2;Temp;Humidity;BMP_temperature;BMP_pressure;BME280_temperature;BME280_humidity;BME280_pressure;Samples;Min_cycle;Max_cycle;Signal;HPM_P1;HPM_P2
2021/08/30 00:02:58;;;;;;;13.13;8.63;;;;;;;;;;10371079;28;20025;-62
2021/08/30 00:07:55;;;;;;;11.70;6.97;;;;;;;;;;10363672;28;20051;-62
2021/08/30 00:12:53;;;;;;;15.73;9.97;;;;;;;;;;10365112;28;20044;-62
2021/08/30 00:17:51;;;;;;;5.17;3.73;;;;;;;;;;10371097;28;20569;-62
2021/08/30 00:22:48;;;;;;;;;;;;;;;;;;10365629;28;20139;-63
2021/08/30 00:27:46;;;;;;;8.93;3.83;;;;;;;;;;10355830;28;20016;-62
2021/08/30 00:32:43;;;;;;;11.13;6.97;;;;;;;;;;10370944;28;20313;-63
2021/08/30 00:37:40;;;;;;;18.70;10.03;;;;;;;;;;10443245;22;20118;-66
2021/08/30 00:42:38;;;;;;;15.93;8.57;;;;;;;;;;10395027;28;20037;-67
2021/08/30 00:47:37;;;;;;;15.53;10.37;;;;;;;;;;10412407;28;20426;-67
2021/08/30 00:52:35;;;;;;;21.42;9.07;;;;;;;;;;10404863;28;20489;-67
2021/08/30 00:57:32;;;;;;;9.00;5.50;;;;;;;;;;10393883;28;20033;-66
2021/08/30 01:02:30;;;;;;;14.57;6.37;;;;;;;;;;10406101;28;20412;-64
2021/08/30 01:07:48;;;;;;;14.27;9.43;;;;;;;;;;10402087;28;20025;-64
2021/08/30 01:12:50;;;;;;;6.10;2.83;;;;;;;;;;10409335;28;20689;-64
2021/08/30 01:17:50;;;;;;;5.97;3.75;;;;;;;;;;10409841;28;20032;-64
2021/08/30 01:22:48;;;;;;;8.85;5.68;;;;;;;;;;10400701;28;20037;-64
2021/08/30 01:27:46;;;;;;;10.88;5.32;;;;;;;;;;10426122;28;20481;-63
2021/08/30 01:32:45;;;;;;;4.72;3.08;;;;;;;;;;10450703;28;20404;-64
2021/08/30 01:37:44;;;;;;;3.88;2.60;;;;;;;;;;10419961;28;20390;-64
2021/08/30 01:42:44;;;;;;;3.58;2.28;;;;;;;;;;10438608;28;20040;-65
2021/08/30 01:47:42;;;;;;;12.60;8.40;;;;;;;;;;10439588;28;20028;-64
2021/08/30 01:52:41;;;;;;;14.43;8.55;;;;;;;;;;10439758;28;20406;-63
2021/08/30 02:00:42;;;;;;;11.85;5.43;;;;;;;;;;10442953;28;20067;-63
2021/08/30 02:02:55;;;;;;;6.75;3.40;;;;;;;;;;10458712;28;20044;-64
2021/08/30 02:07:53;;;;;;;11.23;6.27;;;;;;;;;;10447375;28;20043;-65
2021/08/30 02:12:50;;;;;;;6.83;3.33;;;;;;;;;;10426548;28;20400;-64
2021/08/30 02:17:50;;;;;;;11.77;5.93;;;;;;;;;;10469388;28;20123;-65
2021/08/30 02:22:48;;;;;;;9.77;5.30;;;;;;;;;;10467565;28;20126;-64
2021/08/30 02:27:47;;;;;;;12.53;7.80;;;;;;;;;;10458845;28;20061;-64
2021/08/30 02:32:46;;;;;;;5.68;3.67;;;;;;;;;;10452052;28;20090;-64
2021/08/30 02:37:44;;;;;;;12.13;6.68;;;;;;;;;;10426647;28;20110;-65
2021/08/30 02:42:41;;;;;;;5.20;3.08;;;;;;;;;;10421114;28;20122;-66
2021/08/30 02:47:39;;;;;;;5.88;3.08;;;;;;;;;;10407929;28;20497;-65
2021/08/30 02:52:38;;;;;;;8.10;4.33;;;;;;;;;;10435837;28;20108;-64
2021/08/30 02:57:35;;;;;;;6.20;3.70;;;;;;;;;;10455817;28;20035;-64
2021/08/30 03:02:33;;;;;;;8.93;5.87;;;;;;;;;;10458521;28;20054;-64
2021/08/30 03:07:31;;;;;;;3.95;2.50;;;;;;;;;;10467506;28;20114;-64
2021/08/30 03:12:30;;;;;;;3.43;2.20;;;;;;;;;;10467733;28;20046;-64
2021/08/30 03:17:27;;;;;;;11.73;7.15;;;;;;;;;;10468197;28;20504;-64
2021/08/30 03:22:25;;;;;;;10.00;5.23;;;;;;;;;;10449461;28;20154;-64
2021/08/30 03:27:23;;;;;;;10.88;6.07;;;;;;;;;;10434289;28;20028;-64
2021/08/30 03:32:21;;;;;;;12.68;6.50;;;;;;;;;;10426341;28;20153;-65
2021/08/30 03:37:19;;;;;;;11.13;6.50;;;;;;;;;;10425049;28;20040;-65
2021/08/30 03:42:16;;;;;;;10.20;5.70;;;;;;;;;;10464556;28;20548;-64
2021/08/30 03:47:14;;;;;;;9.37;5.37;;;;;;;;;;10474850;28;20032;-65
2021/08/30 03:52:11;;;;;;;17.80;8.67;;;;;;;;;;10474088;28;20097;-65
2021/08/30 03:57:14;;;;;;;7.38;4.75;;;;;;;;;;10446590;28;20512;-64
2021/08/30 04:02:12;;;;;;;10.45;4.85;;;;;;;;;;10459340;28;20309;-64
2021/08/30 04:07:09;;;;;;;7.82;5.00;;;;;;;;;;10455114;28;20471;-65
2021/08/30 04:12:07;;;;;;;9.97;4.37;;;;;;;;;;10436884;27;20137;-65
2021/08/30 04:17:04;;;;;;;7.37;4.37;;;;;;;;;;10437569;27;20051;-64
2021/08/30 04:22:02;;;;;;;7.70;4.60;;;;;;;;;;10432512;27;20042;-64
2021/08/30 04:26:59;;;;;;;7.73;4.60;;;;;;;;;;10432416;28;20039;-64
2021/08/30 04:31:59;;;;;;;9.57;4.37;;;;;;;;;;10422158;27;20129;-65
2021/08/30 04:36:56;;;;;;;5.63;4.28;;;;;;;;;;10436115;28;20115;-64
2021/08/30 04:41:54;;;;;;;8.30;5.17;;;;;;;;;;10431827;28;20141;-64
2021/08/30 04:46:51;;;;;;;7.50;3.87;;;;;;;;;;10432875;28;20036;-65
2021/08/30 04:51:48;;;;;;;12.13;6.23;;;;;;;;;;10436656;28;20036;-64
2021/08/30 04:56:46;;;;;;;14.27;6.70;;;;;;;;;;10440389;28;20024;-64
2021/08/30 05:01:43;;;;;;;8.67;4.83;;;;;;;;;;10436076;28;20027;-64
2021/08/30 05:06:41;;;;;;;6.10;4.57;;;;;;;;;;10431067;28;20137;-65
2021/08/30 05:11:38;;;;;;;5.63;3.07;;;;;;;;;;10429739;28;20552;-64
2021/08/30 05:16:36;;;;;;;7.97;3.70;;;;;;;;;;10426359;28;20822;-65
2021/08/30 05:21:33;;;;;;;4.60;3.23;;;;;;;;;;10412367;28;20035;-63
2021/08/30 05:26:30;;;;;;;10.47;3.93;;;;;;;;;;10440632;28;20036;-64
2021/08/30 05:31:28;;;;;;;7.83;4.00;;;;;;;;;;10426751;27;20039;-64
2021/08/30 05:36:26;;;;;;;7.60;4.43;;;;;;;;;;10419373;28;20532;-64
2021/08/30 05:41:24;;;;;;;8.10;3.53;;;;;;;;;;10432467;28;20040;-65
2021/08/30 05:46:21;;;;;;;5.77;3.00;;;;;;;;;;10428484;28;20448;-64
2021/08/30 05:51:19;;;;;;;13.40;3.83;;;;;;;;;;10417479;28;20035;-64
2021/08/30 05:56:16;;;;;;;7.50;4.03;;;;;;;;;;10432620;28;20043;-64
2021/08/30 06:01:14;;;;;;;3.80;3.10;;;;;;;;;;10435743;27;20408;-63
2021/08/30 06:06:11;;;;;;;6.00;2.70;;;;;;;;;;10423088;28;20031;-64
2021/08/30 06:11:08;;;;;;;6.53;3.57;;;;;;;;;;10438464;28;20126;-64
2021/08/30 06:16:06;;;;;;;7.70;3.33;;;;;;;;;;10431079;28;20453;-65
2021/08/30 06:21:03;;;;;;;4.13;2.23;;;;;;;;;;10446182;27;20047;-64
2021/08/30 06:26:01;;;;;;;6.73;4.13;;;;;;;;;;10444839;28;20547;-64
2021/08/30 06:30:58;;;;;;;9.67;3.30;;;;;;;;;;10431596;28;20431;-65
2021/08/30 06:35:55;;;;;;;7.93;3.30;;;;;;;;;;10414719;28;20428;-65
2021/08/30 06:40:53;;;;;;;7.57;4.13;;;;;;;;;;10424547;28;20036;-65
2021/08/30 06:45:50;;;;;;;8.07;4.10;;;;;;;;;;10435742;28;20550;-64
2021/08/30 06:50:47;;;;;;;8.47;3.47;;;;;;;;;;10433077;28;20498;-65
2021/08/30 06:55:45;;;;;;;6.63;3.97;;;;;;;;;;10435573;28;20015;-65
2021/08/30 07:00:42;;;;;;;6.27;3.57;;;;;;;;;;10416616;28;20123;-65
2021/08/30 07:05:40;;;;;;;7.13;3.47;;;;;;;;;;10432849;28;20117;-64
2021/08/30 07:10:37;;;;;;;3.90;2.20;;;;;;;;;;10423669;28;20077;-63
2021/08/30 07:15:35;;;;;;;3.57;2.57;;;;;;;;;;10435957;28;20392;-64
2021/08/30 07:20:32;;;;;;;3.50;2.83;;;;;;;;;;10418420;28;20382;-65
2021/08/30 07:25:29;;;;;;;3.60;2.73;;;;;;;;;;10450576;28;20039;-64
2021/08/30 07:30:27;;;;;;;4.63;2.73;;;;;;;;;;10442316;28;20097;-64
2021/08/30 07:35:24;;;;;;;5.40;3.60;;;;;;;;;;10444467;28;20036;-64
2021/08/30 07:40:22;;;;;;;7.57;3.03;;;;;;;;;;10440815;28;20434;-64
2021/08/30 07:45:19;;;;;;;6.30;3.00;;;;;;;;;;10439173;28;20067;-64
2021/08/30 07:50:18;;;;;;;4.60;3.30;;;;;;;;;;10426681;28;20041;-65
2021/08/30 07:55:16;;;;;;;4.97;2.88;;;;;;;;;;10430623;28;20408;-64
2021/08/30 08:00:14;;;;;;;13.27;4.50;;;;;;;;;;10420111;28;20051;-64
2021/08/30 08:05:12;;;;;;;5.67;2.50;;;;;;;;;;10426541;28;20047;-64
2021/08/30 08:10:09;;;;;;;4.97;2.40;;;;;;;;;;10435327;27;20040;-65
2021/08/30 08:15:07;;;;;;;5.40;3.00;;;;;;;;;;10448431;28;20036;-64
2021/08/30 08:20:05;;;;;;;4.60;2.77;;;;;;;;;;10437023;27;20093;-64
2021/08/30 08:25:04;;;;;;;5.45;3.15;;;;;;;;;;10428966;28;20040;-64
2021/08/30 08:30:01;;;;;;;5.28;3.47;;;;;;;;;;10438907;27;20459;-65
2021/08/30 08:34:59;;;;;;;5.80;3.77;;;;;;;;;;10440962;28;20062;-64
2021/08/30 08:39:56;;;;;;;5.03;3.30;;;;;;;;;;10441455;28;20035;-65
2021/08/30 08:44:53;;;;;;;10.40;4.37;;;;;;;;;;10445373;28;20042;-64
2021/08/30 08:49:51;;;;;;;8.53;3.53;;;;;;;;;;10448527;28;20036;-65
2021/08/30 08:54:49;;;;;;;4.32;2.47;;;;;;;;;;10432482;27;20491;-67
2021/08/30 08:59:56;;;;;;;5.82;3.38;;;;;;;;;;10432041;28;20126;-64
2021/08/30 09:04:54;;;;;;;8.10;4.35;;;;;;;;;;10447189;28;20504;-65
2021/08/30 09:09:56;;;;;;;8.32;3.58;;;;;;;;;;10439814;28;20036;-64
2021/08/30 09:14:54;;;;;;;4.90;3.17;;;;;;;;;;10458244;28;20092;-64
2021/08/30 09:19:53;;;;;;;5.20;2.33;;;;;;;;;;10441235;28;20093;-65
2021/08/30 09:25:01;;;;;;;2.78;1.85;;;;;;;;;;10452336;28;20045;-66
2021/08/30 09:30:01;;;;;;;5.78;3.45;;;;;;;;;;10430884;28;20053;-65
2021/08/30 09:34:58;;;;;;;3.40;1.83;;;;;;;;;;10442393;28;21089;-65
2021/08/30 09:39:55;;;;;;;;;;;;;;;;;;10423785;28;20270;-66
2021/08/30 09:44:55;;;;;;;3.28;2.63;;;;;;;;;;10439589;27;19916;-66
2021/08/30 09:49:53;;;;;;;5.97;3.03;;;;;;;;;;10443870;28;20042;-66
2021/08/30 09:54:51;;;;;;;7.53;2.40;;;;;;;;;;10423640;28;20058;-66
2021/08/30 09:59:50;;;;;;;6.50;2.70;;;;;;;;;;10438634;28;20413;-66
2021/08/30 10:04:48;;;;;;;3.30;2.38;;;;;;;;;;10438128;28;20040;-66
2021/08/30 10:09:46;;;;;;;7.97;3.63;;;;;;;;;;10440457;28;20040;-66
2021/08/30 10:14:44;;;;;;;12.85;5.03;;;;;;;;;;10440557;27;20219;-66
2021/08/30 10:19:41;;;;;;;12.45;4.97;;;;;;;;;;10434728;28;20043;-66
2021/08/30 10:24:40;;;;;;;6.40;3.15;;;;;;;;;;10426133;27;20527;-66
2021/08/30 10:29:39;;;;;;;7.97;4.75;;;;;;;;;;10418466;28;20141;-66
2021/08/30 10:34:38;;;;;;;3.45;2.30;;;;;;;;;;10433536;28;20036;-64
2021/08/30 10:39:45;;;;;;;5.20;3.15;;;;;;;;;;10436343;28;20039;-66
2021/08/30 10:44:53;;;;;;;5.97;2.95;;;;;;;;;;10430903;28;20043;-66
2021/08/30 10:49:52;;;;;;;5.57;3.13;;;;;;;;;;10437159;28;20039;-66
2021/08/30 10:54:52;;;;;;;3.55;2.10;;;;;;;;;;10436815;28;20040;-65
2021/08/30 10:59:56;;;;;;;3.92;2.58;;;;;;;;;;10441791;28;20043;-66
2021/08/30 11:04:54;;;;;;;2.88;1.85;;;;;;;;;;10435215;28;20317;-65
2021/08/30 11:09:51;;;;;;;2.30;1.80;;;;;;;;;;10425820;28;20043;-66
2021/08/30 11:14:55;;;;;;;4.57;2.63;;;;;;;;;;10435269;28;20036;-66
2021/08/30 11:19:54;;;;;;;4.18;2.47;;;;;;;;;;10426869;28;20650;-66
2021/08/30 11:24:51;;;;;;;3.55;2.72;;;;;;;;;;10415804;28;20042;-66
2021/08/30 11:29:53;;;;;;;4.35;2.50;;;;;;;;;;10410712;28;20046;-66
2021/08/30 11:34:51;;;;;;;3.70;3.03;;;;;;;;;;10422993;28;20047;-65
2021/08/30 11:39:50;;;;;;;7.70;3.50;;;;;;;;;;10420538;28;20508;-66
2021/08/30 11:44:48;;;;;;;3.63;1.67;;;;;;;;;;10430063;28;20039;-66
2021/08/30 11:49:47;;;;;;;1.70;1.40;;;;;;;;;;10414311;28;20040;-66
2021/08/30 11:55:19;;;;;;;3.97;1.70;;;;;;;;;;10429031;28;20042;-66
2021/08/30 12:00:22;;;;;;;4.40;2.45;;;;;;;;;;10336925;28;20032;-64
2021/08/30 12:05:19;;;;;;;1.85;1.42;;;;;;;;;;10460741;28;20047;-66
2021/08/30 12:10:17;;;;;;;5.63;4.15;;;;;;;;;;10429889;28;20028;-65
2021/08/30 12:15:15;;;;;;;6.80;1.60;;;;;;;;;;10453321;28;20039;-65
2021/08/30 12:20:20;;;;;;;6.45;2.28;;;;;;;;;;10440396;28;20293;-65
2021/08/30 12:25:17;;;;;;;1.90;1.40;;;;;;;;;;10423234;28;20526;-67
2021/08/30 12:30:28;;;;;;;3.22;2.08;;;;;;;;;;10444590;28;20126;-66
2021/08/30 12:35:28;;;;;;;2.95;1.80;;;;;;;;;;10437681;28;20043;-64
2021/08/30 12:40:27;;;;;;;4.10;2.58;;;;;;;;;;10437532;28;20041;-65
2021/08/30 12:45:25;;;;;;;4.72;2.70;;;;;;;;;;10432336;28;20055;-66
2021/08/30 12:50:24;;;;;;;3.08;2.25;;;;;;;;;;10438229;28;20385;-67
2021/08/30 12:55:21;;;;;;;5.88;3.85;;;;;;;;;;10447217;28;20078;-65
2021/08/30 13:00:19;;;;;;;3.88;2.05;;;;;;;;;;10432642;28;20130;-66
2021/08/30 13:05:18;;;;;;;3.67;1.98;;;;;;;;;;10448104;28;20411;-66
2021/08/30 13:10:17;;;;;;;3.35;2.17;;;;;;;;;;10402820;28;20032;-66
2021/08/30 13:15:16;;;;;;;2.25;1.40;;;;;;;;;;10439393;28;20151;-65
2021/08/30 13:20:14;;;;;;;1.52;1.30;;;;;;;;;;10426345;28;20139;-66
2021/08/30 13:25:13;;;;;;;4.57;1.60;;;;;;;;;;10428912;28;20058;-66
2021/08/30 13:30:11;;;;;;;3.25;2.28;;;;;;;;;;10444918;28;20108;-65
2021/08/30 13:35:10;;;;;;;2.28;1.80;;;;;;;;;;10434211;28;20120;-64
2021/08/30 13:40:09;;;;;;;5.53;2.08;;;;;;;;;;10432559;28;20534;-65
2021/08/30 13:45:07;;;;;;;1.80;1.60;;;;;;;;;;10435954;28;20044;-65
2021/08/30 13:50:04;;;;;;;4.38;2.30;;;;;;;;;;10433992;28;20073;-66
2021/08/30 13:55:02;;;;;;;2.67;1.88;;;;;;;;;;10427133;28;20067;-65
2021/08/30 13:59:59;;;;;;;4.35;1.92;;;;;;;;;;10399934;28;20134;-66
2021/08/30 14:04:57;;;;;;;3.83;2.40;;;;;;;;;;10437415;28;20485;-66
2021/08/30 14:09:54;;;;;;;3.03;2.00;;;;;;;;;;10427773;28;20089;-65
2021/08/30 14:14:52;;;;;;;2.40;2.20;;;;;;;;;;10435692;28;20055;-66
2021/08/30 14:19:49;;;;;;;4.47;1.77;;;;;;;;;;10413792;28;20058;-65
2021/08/30 14:24:47;;;;;;;4.47;2.77;;;;;;;;;;10420766;28;20066;-64
2021/08/30 14:29:46;;;;;;;1.40;1.30;;;;;;;;;;10406652;28;20035;-65
2021/08/30 14:34:43;;;;;;;3.15;2.00;;;;;;;;;;10441712;28;20032;-65
2021/08/30 14:39:41;;;;;;;3.45;1.70;;;;;;;;;;10400268;28;20036;-65
2021/08/30 14:44:38;;;;;;;2.22;1.55;;;;;;;;;;10416536;28;20031;-65
2021/08/30 14:49:36;;;;;;;2.07;1.37;;;;;;;;;;10435556;28;20050;-69
2021/08/30 14:54:34;;;;;;;2.00;1.33;;;;;;;;;;10422408;28;20333;-65
2021/08/30 14:59:31;;;;;;;3.28;1.88;;;;;;;;;;10441227;28;20039;-66
2021/08/30 15:04:28;;;;;;;3.57;2.13;;;;;;;;;;10444077;28;20061;-66
2021/08/30 15:09:26;;;;;;;3.87;2.00;;;;;;;;;;10418209;28;20062;-65
2021/08/30 15:14:23;;;;;;;3.97;1.97;;;;;;;;;;10411860;28;20297;-64
2021/08/30 15:19:21;;;;;;;3.83;1.67;;;;;;;;;;10429159;28;20278;-63
2021/08/30 15:24:18;;;;;;;4.00;1.40;;;;;;;;;;10432296;28;20842;-64
2021/08/30 15:29:15;;;;;;;2.43;1.63;;;;;;;;;;10438985;28;20040;-64
2021/08/30 15:34:13;;;;;;;2.53;1.30;;;;;;;;;;10429383;28;20131;-64
2021/08/30 15:39:10;;;;;;;2.50;1.45;;;;;;;;;;10432049;28;20158;-64
2021/08/30 15:44:08;;;;;;;2.83;1.67;;;;;;;;;;10447299;28;20398;-64
2021/08/30 15:49:05;;;;;;;2.10;1.42;;;;;;;;;;10452279;28;20293;-62
2021/08/30 15:54:03;;;;;;;4.97;2.00;;;;;;;;;;10443686;28;20089;-66
2021/08/30 15:59:01;;;;;;;2.20;1.60;;;;;;;;;;10441495;28;20270;-65
2021/08/30 16:03:58;;;;;;;2.65;1.40;;;;;;;;;;10439181;28;20265;-65
2021/08/30 16:08:56;;;;;;;3.45;1.65;;;;;;;;;;10437738;28;20051;-64
2021/08/30 16:13:54;;;;;;;1.60;0.87;;;;;;;;;;10432853;28;20032;-65
2021/08/30 16:18:51;;;;;;;4.22;1.88;;;;;;;;;;10443008;28;20040;-65
2021/08/30 16:23:49;;;;;;;1.25;1.15;;;;;;;;;;10446716;28;20032;-64
2021/08/30 16:28:47;;;;;;;2.30;1.35;;;;;;;;;;10437039;27;20480;-65
2021/08/30 16:33:44;;;;;;;2.33;1.05;;;;;;;;;;10435798;28;20046;-65
2021/08/30 16:38:42;;;;;;;1.37;0.70;;;;;;;;;;10455135;28;20050;-64
2021/08/30 16:43:39;;;;;;;4.07;1.20;;;;;;;;;;10437981;27;20047;-65
2021/08/30 16:48:37;;;;;;;2.53;1.23;;;;;;;;;;10443796;28;20044;-66
2021/08/30 16:53:36;;;;;;;1.53;1.07;;;;;;;;;;10440498;27;20477;-65
2021/08/30 16:58:36;;;;;;;3.38;1.75;;;;;;;;;;10404974;27;20312;-66
2021/08/30 17:03:34;;;;;;;2.20;1.30;;;;;;;;;;10446162;27;20063;-66
2021/08/30 17:08:31;;;;;;;4.10;2.30;;;;;;;;;;10445905;28;20031;-66
2021/08/30 17:13:30;;;;;;;1.77;1.58;;;;;;;;;;10431137;28;20380;-66
2021/08/30 17:18:34;;;;;;;7.45;4.15;;;;;;;;;;10437590;28;20027;-65
2021/08/30 17:23:31;;;;;;;1.77;1.42;;;;;;;;;;10440294;28;20024;-66
2021/08/30 17:28:29;;;;;;;4.00;1.60;;;;;;;;;;10437910;28;20015;-65
2021/08/30 17:33:26;;;;;;;7.57;2.97;;;;;;;;;;10452469;28;20345;-66
2021/08/30 17:38:24;;;;;;;4.00;2.92;;;;;;;;;;10416641;28;20319;-67
2021/08/30 17:43:21;;;;;;;3.13;1.87;;;;;;;;;;10429557;28;20563;-66
2021/08/30 17:48:19;;;;;;;8.67;4.37;;;;;;;;;;10441165;28;20265;-66
2021/08/30 17:53:17;;;;;;;5.20;3.35;;;;;;;;;;10407665;28;20028;-65
2021/08/30 17:58:14;;;;;;;5.67;2.43;;;;;;;;;;10434784;28;20088;-67
2021/08/30 18:03:12;;;;;;;7.22;3.85;;;;;;;;;;10452979;27;20442;-66
2021/08/30 18:08:09;;;;;;;2.40;1.38;;;;;;;;;;10444464;27;20505;-64
2021/08/30 18:13:06;;;;;;;3.67;1.73;;;;;;;;;;10442274;28;20043;-65
2021/08/30 18:18:04;;;;;;;3.50;1.97;;;;;;;;;;10437274;28;20752;-67
2021/08/30 18:23:06;;;;;;;4.75;2.13;;;;;;;;;;10434477;28;20078;-66
2021/08/30 18:28:04;;;;;;;6.30;1.88;;;;;;;;;;10431601;28;20128;-65
2021/08/30 18:33:02;;;;;;;;;;;;;;;;;;10438361;28;20031;-66
2021/08/30 18:37:59;;;;;;;2.83;2.30;;;;;;;;;;10438121;28;19920;-66
2021/08/30 18:42:57;;;;;;;5.50;2.03;;;;;;;;;;10434140;28;20111;-65
2021/08/30 18:47:54;;;;;;;;;;;;;;;;;;10447547;28;20070;-66
2021/08/30 18:52:52;;;;;;;6.53;2.30;;;;;;;;;;10437287;28;19915;-65
2021/08/30 18:57:49;;;;;;;;;;;;;;;;;;10450426;28;20028;-66
2021/08/30 19:02:46;;;;;;;4.20;2.20;;;;;;;;;;10427187;28;19966;-66
2021/08/30 19:07:44;;;;;;;;;;;;;;;;;;10424509;28;20185;-67
2021/08/30 19:12:41;;;;;;;9.27;2.20;;;;;;;;;;10440251;28;19916;-66
2021/08/30 19:17:39;;;;;;;;;;;;;;;;;;10438977;28;20100;-65
2021/08/30 19:22:37;;;;;;;3.90;2.23;;;;;;;;;;10443902;28;19928;-65
2021/08/30 19:27:34;;;;;;;6.78;2.63;;;;;;;;;;10423968;28;20386;-65
2021/08/30 19:32:34;;;;;;;4.28;2.65;;;;;;;;;;10438233;28;20047;-66
2021/08/30 19:37:31;;;;;;;4.45;2.20;;;;;;;;;;10441802;28;20040;-66
2021/08/30 19:42:29;;;;;;;2.47;2.00;;;;;;;;;;10449392;28;20036;-65
2021/08/30 19:47:26;;;;;;;4.78;2.63;;;;;;;;;;10439045;27;20182;-66
2021/08/30 19:52:24;;;;;;;5.57;2.10;;;;;;;;;;10431390;28;20036;-65
2021/08/30 19:57:21;;;;;;;7.20;3.10;;;;;;;;;;10434840;27;20054;-66
2021/08/30 20:02:18;;;;;;;6.73;2.80;;;;;;;;;;10429693;27;20475;-64
2021/08/30 20:07:16;;;;;;;4.10;1.93;;;;;;;;;;10438447;28;20350;-67
2021/08/30 20:12:13;;;;;;;10.23;3.20;;;;;;;;;;10445172;28;20570;-66
2021/08/30 20:17:11;;;;;;;4.63;2.87;;;;;;;;;;10412949;27;20039;-66
2021/08/30 20:22:09;;;;;;;11.93;6.82;;;;;;;;;;10359375;28;20300;-65
2021/08/30 20:27:08;;;;;;;13.60;6.97;;;;;;;;;;10434395;28;20024;-65
2021/08/30 20:32:05;;;;;;;12.73;7.90;;;;;;;;;;10436657;28;20404;-66
2021/08/30 20:37:03;;;;;;;12.15;7.80;;;;;;;;;;10425148;28;20044;-66
2021/08/30 20:42:01;;;;;;;12.70;7.37;;;;;;;;;;10439105;27;20050;-67
2021/08/30 20:46:58;;;;;;;14.02;6.30;;;;;;;;;;10428059;27;20028;-65
2021/08/30 20:51:55;;;;;;;9.37;6.37;;;;;;;;;;10441077;28;20161;-65
2021/08/30 20:56:53;;;;;;;16.00;6.77;;;;;;;;;;10436061;27;20501;-66
2021/08/30 21:01:50;;;;;;;11.37;6.90;;;;;;;;;;10438379;28;20031;-64
2021/08/30 21:06:47;;;;;;;17.53;7.87;;;;;;;;;;10450636;28;20052;-66
2021/08/30 21:11:45;;;;;;;10.37;6.80;;;;;;;;;;10443410;28;20507;-67
2021/08/30 21:16:42;;;;;;;18.57;8.53;;;;;;;;;;10435957;28;20032;-66
2021/08/30 21:21:39;;;;;;;2.73;1.20;;;;;;;;;;10447609;28;20466;-65
2021/08/30 21:26:37;;;;;;;3.73;1.77;;;;;;;;;;10428091;28;20035;-66
2021/08/30 21:31:34;;;;;;;1.17;1.03;;;;;;;;;;10436986;28;20032;-67
2021/08/30 21:36:32;;;;;;;5.50;2.42;;;;;;;;;;10398341;28;20066;-66
2021/08/30 21:41:30;;;;;;;8.03;3.30;;;;;;;;;;10449627;27;20051;-66
2021/08/30 21:46:27;;;;;;;5.05;2.45;;;;;;;;;;10420827;28;20124;-65
2021/08/30 21:51:25;;;;;;;5.57;2.37;;;;;;;;;;10440760;28;20036;-66
2021/08/30 21:56:22;;;;;;;8.17;3.13;;;;;;;;;;10438983;28;20035;-67
2021/08/30 22:01:19;;;;;;;5.83;2.80;;;;;;;;;;10436079;28;20127;-66
2021/08/30 22:06:17;;;;;;;14.73;4.72;;;;;;;;;;10435117;27;20412;-66
2021/08/30 22:11:15;;;;;;;1.90;1.27;;;;;;;;;;10437051;28;20042;-67
2021/08/30 22:16:12;;;;;;;6.07;3.53;;;;;;;;;;10439063;28;20042;-67
2021/08/30 22:21:10;;;;;;;1.23;0.50;;;;;;;;;;10397485;28;20388;-66
2021/08/30 22:26:07;;;;;;;4.87;2.47;;;;;;;;;;10409757;28;20123;-67
2021/08/30 22:31:05;;;;;;;4.37;2.07;;;;;;;;;;10445833;28;20095;-66
2021/08/30 22:36:02;;;;;;;6.30;1.87;;;;;;;;;;10441450;28;20126;-66
2021/08/30 22:41:00;;;;;;;3.13;1.73;;;;;;;;;;10439894;28;20031;-65
2021/08/30 22:45:57;;;;;;;4.00;1.07;;;;;;;;;;10418848;27;20031;-65
2021/08/30 22:50:54;;;;;;;7.13;3.80;;;;;;;;;;10443468;28;20472;-64
2021/08/30 22:55:52;;;;;;;4.33;3.20;;;;;;;;;;10450008;28;20035;-64
2021/08/30 23:00:50;;;;;;;7.38;2.97;;;;;;;;;;10427418;28;20028;-64
2021/08/30 23:05:47;;;;;;;8.07;3.83;;;;;;;;;;10438965;28;20504;-66
2021/08/30 23:10:45;;;;;;;6.00;4.03;;;;;;;;;;10444041;28;20031;-65
2021/08/30 23:15:42;;;;;;;3.57;1.90;;;;;;;;;;10443677;28;20046;-65
2021/08/30 23:20:39;;;;;;;6.23;3.43;;;;;;;;;;10451668;28;20400;-65
2021/08/30 23:25:37;;;;;;;4.10;2.77;;;;;;;;;;10417008;28;20469;-65
2021/08/30 23:30:34;;;;;;;3.00;2.00;;;;;;;;;;10427765;28;20043;-65
2021/08/30 23:35:31;;;;;;;9.10;3.03;;;;;;;;;;10410914;28;20036;-66
2021/08/30 23:45:56;;;;;;;2.03;1.60;;;;;;;;;;10235204;28;20042;-63
2021/08/30 23:50:53;;;;;;;4.07;1.27;;;;;;;;;;10240873;28;20022;-64
2021/08/30 23:55:52;;;;;;;1.97;1.13;;;;;;;;;;10248121;28;20022;-64
